createdAt,value
2017-10-02T00:00:35.640Z,11.90
2017-10-02T00:03:03.168Z,11.90
2017-10-02T00:05:30.719Z,12.00
2017-10-02T00:07:59.031Z,12.00
2017-10-02T00:10:26.569Z,12.00
2017-10-02T00:12:54.890Z,12.00
2017-10-02T00:15:22.439Z,12.00
2017-10-02T00:17:49.996Z,12.00
2017-10-02T00:20:17.544Z,12.00
2017-10-02T00:22:45.088Z,12.10
2017-10-02T00:25:12.646Z,12.10
2017-10-02T00:27:41.014Z,12.10
2017-10-02T00:30:09.773Z,12.10
2017-10-02T00:32:37.306Z,12.10
2017-10-02T00:35:04.844Z,12.10
2017-10-02T00:37:32.385Z,12.10
2017-10-02T00:40:00.685Z,12.10
2017-10-02T00:42:28.232Z,12.10
2017-10-02T00:44:55.767Z,12.00
2017-10-02T00:47:24.371Z,15.40
2017-10-02T00:49:51.909Z,11.90
2017-10-02T00:52:20.231Z,11.80
2017-10-02T00:54:47.822Z,11.80
2017-10-02T00:57:15.362Z,11.80
2017-10-02T00:59:43.333Z,11.80
2017-10-02T01:02:10.858Z,11.80
2017-10-02T01:04:38.466Z,11.80
2017-10-02T01:07:06.011Z,11.80
2017-10-02T01:09:33.555Z,11.80
2017-10-02T01:12:01.093Z,11.70
2017-10-02T01:14:28.612Z,11.70
2017-10-02T01:16:56.158Z,11.70
2017-10-02T01:19:23.692Z,11.60
2017-10-02T01:21:51.380Z,11.70
2017-10-02T01:24:18.920Z,11.60
2017-10-02T01:26:46.441Z,11.60
2017-10-02T01:29:13.976Z,11.60
2017-10-02T01:31:41.501Z,11.60
2017-10-02T01:34:09.049Z,11.50
2017-10-02T01:36:36.612Z,11.60
2017-10-02T01:39:04.138Z,11.60
2017-10-02T01:41:32.453Z,11.60
2017-10-02T01:43:59.985Z,11.60
2017-10-02T01:46:27.525Z,11.70
2017-10-02T01:48:55.815Z,11.70
2017-10-02T01:51:23.361Z,11.70
2017-10-02T01:53:51.639Z,11.80
2017-10-02T01:56:20.217Z,11.70
2017-10-02T01:58:47.746Z,11.70
2017-10-02T02:01:15.278Z,11.80
2017-10-02T02:03:42.793Z,11.80
2017-10-02T02:06:11.083Z,11.80
2017-10-02T02:08:38.631Z,11.70
2017-10-02T02:11:06.922Z,11.80
2017-10-02T02:13:34.469Z,11.80
2017-10-02T02:16:02.026Z,11.80
2017-10-02T02:18:30.303Z,11.80
2017-10-02T02:20:58.594Z,11.80
2017-10-02T02:23:26.122Z,11.80
2017-10-02T02:25:53.670Z,11.90
2017-10-02T02:28:21.202Z,11.90
2017-10-02T02:30:48.728Z,11.90
2017-10-02T02:33:16.249Z,11.90
2017-10-02T02:35:43.775Z,11.90
2017-10-02T02:38:11.338Z,11.90
2017-10-02T02:40:38.876Z,11.90
2017-10-02T02:43:06.442Z,11.90
2017-10-02T02:45:34.014Z,11.90
2017-10-02T02:48:01.546Z,11.90
2017-10-02T02:50:29.076Z,11.90
2017-10-02T02:52:57.380Z,11.90
2017-10-02T02:55:24.909Z,11.90
2017-10-02T02:57:52.463Z,11.90
2017-10-02T03:00:19.972Z,12.00
2017-10-02T03:02:47.522Z,11.90
2017-10-02T03:05:15.084Z,11.90
2017-10-02T03:07:42.647Z,11.90
2017-10-02T03:10:10.211Z,11.80
2017-10-02T03:12:37.734Z,11.80
2017-10-02T03:15:06.068Z,11.80
2017-10-02T03:17:33.589Z,11.80
2017-10-02T03:20:01.122Z,11.80
2017-10-02T03:22:29.396Z,11.80
2017-10-02T03:24:57.712Z,11.80
2017-10-02T03:27:25.991Z,11.80
2017-10-02T03:29:54.302Z,11.80
2017-10-02T03:32:21.834Z,11.70
2017-10-02T03:34:49.369Z,11.80
2017-10-02T03:37:16.937Z,11.70
2017-10-02T03:39:44.467Z,11.70
2017-10-02T03:42:12.848Z,11.80
2017-10-02T03:44:40.373Z,11.70
2017-10-02T03:47:07.901Z,11.80
2017-10-02T03:49:35.439Z,11.80
2017-10-02T03:52:03.963Z,11.80
2017-10-02T03:54:31.495Z,11.80
2017-10-02T03:56:59.077Z,11.80
2017-10-02T03:59:26.785Z,11.80
2017-10-02T04:01:55.101Z,11.70
2017-10-02T04:04:22.639Z,11.70
2017-10-02T04:06:50.182Z,11.70
2017-10-02T04:09:18.475Z,11.60
2017-10-02T04:11:46.019Z,11.60
2017-10-02T04:14:13.541Z,11.50
2017-10-02T04:16:41.056Z,11.50
2017-10-02T04:19:08.588Z,11.50
2017-10-02T04:21:36.888Z,11.40
2017-10-02T04:24:04.410Z,11.40
2017-10-02T04:26:31.940Z,11.40
2017-10-02T04:28:59.502Z,11.30
2017-10-02T04:31:27.038Z,11.30
2017-10-02T04:33:54.556Z,11.30
2017-10-02T04:36:22.856Z,11.20
2017-10-02T04:38:50.375Z,11.20
2017-10-02T04:41:17.987Z,11.10
2017-10-02T04:43:45.509Z,11.20
2017-10-02T04:46:13.808Z,11.20
2017-10-02T04:48:41.401Z,11.20
2017-10-02T04:51:08.943Z,11.30
2017-10-02T04:53:36.472Z,11.30
2017-10-02T04:56:03.993Z,11.30
2017-10-02T04:58:31.538Z,11.30
2017-10-02T05:00:59.109Z,11.30
2017-10-02T05:03:26.643Z,11.20
2017-10-02T05:05:54.155Z,11.20
2017-10-02T05:08:21.691Z,11.10
2017-10-02T05:10:49.257Z,11.10
2017-10-02T05:13:16.808Z,11.10
2017-10-02T05:15:44.368Z,11.00
2017-10-02T05:18:11.932Z,11.00
2017-10-02T05:20:39.493Z,11.10
2017-10-02T05:23:07.041Z,11.00
2017-10-02T05:25:34.605Z,11.00
2017-10-02T05:28:02.927Z,11.10
2017-10-02T05:30:30.488Z,11.10
2017-10-02T05:32:58.020Z,11.10
2017-10-02T05:35:25.551Z,11.10
2017-10-02T05:37:53.085Z,11.10
2017-10-02T05:40:20.624Z,11.20
2017-10-02T05:42:48.181Z,11.20
2017-10-02T05:45:15.722Z,11.20
2017-10-02T05:47:43.264Z,11.20
2017-10-02T05:50:10.821Z,11.20
2017-10-02T05:52:38.337Z,11.30
2017-10-02T05:55:06.218Z,11.30
2017-10-02T05:57:33.762Z,11.30
2017-10-02T06:00:01.298Z,11.30
2017-10-02T06:02:29.597Z,11.30
2017-10-02T06:04:57.154Z,11.30
2017-10-02T06:07:24.722Z,11.40
2017-10-02T06:09:52.254Z,11.40
2017-10-02T06:12:19.798Z,11.40
2017-10-02T06:14:48.107Z,11.50
2017-10-02T06:17:15.664Z,11.40
2017-10-02T06:19:43.980Z,11.50
2017-10-02T06:22:11.537Z,11.50
2017-10-02T06:24:39.105Z,11.50
2017-10-02T06:27:06.642Z,11.50
2017-10-02T06:29:34.187Z,11.50
2017-10-02T06:32:01.728Z,11.50
2017-10-02T06:34:29.257Z,11.50
2017-10-02T06:36:56.789Z,11.50
2017-10-02T06:39:24.330Z,11.50
2017-10-02T06:41:51.877Z,11.50
2017-10-02T06:44:19.412Z,11.50
2017-10-02T06:46:47.700Z,11.70
2017-10-02T06:49:15.238Z,11.60
2017-10-02T06:51:42.830Z,11.60
2017-10-02T06:54:10.388Z,11.60
2017-10-02T06:56:37.920Z,11.70
2017-10-02T06:59:06.261Z,11.70
2017-10-02T07:01:33.808Z,11.70
2017-10-02T07:04:01.353Z,11.70
2017-10-02T07:06:28.955Z,11.80
2017-10-02T07:08:56.542Z,11.80
2017-10-02T07:11:24.140Z,11.80
2017-10-02T07:13:51.973Z,11.80
2017-10-02T07:16:19.574Z,11.90
2017-10-02T07:18:47.132Z,11.90
2017-10-02T07:21:14.703Z,11.90
2017-10-02T07:23:42.350Z,11.90
2017-10-02T07:26:09.865Z,11.90
2017-10-02T07:28:37.416Z,11.90
2017-10-02T07:31:05.802Z,12.00
2017-10-02T07:33:34.141Z,12.00
2017-10-02T07:36:01.682Z,12.00
2017-10-02T07:38:29.207Z,12.00
2017-10-02T07:40:56.752Z,12.00
2017-10-02T07:43:25.049Z,12.10
2017-10-02T07:45:53.051Z,12.00
2017-10-02T07:48:20.704Z,12.10
2017-10-02T07:50:48.306Z,12.10
2017-10-02T07:53:15.867Z,12.00
2017-10-02T07:55:44.166Z,12.00
2017-10-02T07:58:11.772Z,12.00
2017-10-02T08:00:40.123Z,12.10
2017-10-02T08:03:08.006Z,12.10
2017-10-02T08:05:35.570Z,12.10
2017-10-02T08:08:03.117Z,12.10
2017-10-02T08:10:30.659Z,12.20
2017-10-02T08:12:58.201Z,12.20
2017-10-02T08:15:26.551Z,12.20
2017-10-02T08:17:54.092Z,12.10
2017-10-02T08:20:21.887Z,12.30
2017-10-02T08:22:49.422Z,12.20
2017-10-02T08:25:16.963Z,12.30
2017-10-02T08:27:44.550Z,12.40
2017-10-02T08:30:12.090Z,12.40
2017-10-02T08:32:39.789Z,12.40
2017-10-02T08:35:08.081Z,12.60
2017-10-02T08:37:35.892Z,12.60
2017-10-02T08:40:03.517Z,12.60
2017-10-02T08:42:31.052Z,12.70
2017-10-02T08:44:58.638Z,12.80
2017-10-02T08:47:26.188Z,12.80
2017-10-02T08:49:53.751Z,12.80
2017-10-02T08:52:21.290Z,12.90
2017-10-02T08:54:49.222Z,12.90
2017-10-02T08:57:16.771Z,13.00
2017-10-02T08:59:44.391Z,13.10
2017-10-02T09:02:12.704Z,13.20
2017-10-02T09:04:40.272Z,13.20
2017-10-02T09:07:07.819Z,13.30
2017-10-02T09:09:35.353Z,13.30
2017-10-02T09:12:03.336Z,13.40
2017-10-02T09:14:30.865Z,13.50
2017-10-02T09:16:59.146Z,13.40
2017-10-02T09:19:26.700Z,13.50
2017-10-02T09:21:59.221Z,13.50
2017-10-02T09:24:27.508Z,13.40
2017-10-02T09:26:55.046Z,13.50
2017-10-02T09:29:22.587Z,13.50
2017-10-02T09:31:50.141Z,13.50
2017-10-02T09:34:17.785Z,13.50
2017-10-02T09:36:46.363Z,13.40
2017-10-02T09:39:13.982Z,13.40
2017-10-02T09:41:41.554Z,13.50
2017-10-02T09:44:09.160Z,13.40
2017-10-02T09:46:37.102Z,13.40
2017-10-02T09:49:04.751Z,13.40
2017-10-02T09:51:32.417Z,13.40
2017-10-02T09:54:00.199Z,13.40
2017-10-02T09:56:27.855Z,13.50
2017-10-02T09:58:55.445Z,13.40
2017-10-02T10:01:23.012Z,13.40
2017-10-02T10:03:50.927Z,13.30
2017-10-02T10:06:18.469Z,13.20
2017-10-02T10:08:47.015Z,13.20
2017-10-02T10:11:14.572Z,13.10
2017-10-02T10:13:42.123Z,13.10
2017-10-02T10:16:10.445Z,13.20
2017-10-02T10:18:38.003Z,13.10
2017-10-02T10:21:05.832Z,13.20
2017-10-02T10:23:33.364Z,13.20
2017-10-02T10:26:00.937Z,13.20
2017-10-02T10:28:28.555Z,13.30
2017-10-02T10:30:56.131Z,13.40
2017-10-02T10:33:23.923Z,13.40
2017-10-02T10:35:51.537Z,13.40
2017-10-02T10:38:20.208Z,13.50
2017-10-02T10:40:47.887Z,13.50
2017-10-02T10:43:15.559Z,13.50
2017-10-02T10:45:43.143Z,13.60
2017-10-02T10:48:10.732Z,13.70
2017-10-02T10:50:38.306Z,13.60
2017-10-02T10:53:06.074Z,13.70
2017-10-02T10:55:33.887Z,13.70
2017-10-02T10:58:01.477Z,13.80
2017-10-02T11:00:29.085Z,13.80
2017-10-02T11:02:56.649Z,13.90
2017-10-02T11:05:24.242Z,14.00
2017-10-02T11:07:52.568Z,14.20
2017-10-02T11:10:20.163Z,14.10
2017-10-02T11:12:47.756Z,14.20
2017-10-02T11:15:15.332Z,14.30
2017-10-02T11:17:42.918Z,14.40
2017-10-02T11:20:10.638Z,14.40
2017-10-02T11:22:38.237Z,14.50
2017-10-02T11:25:05.850Z,14.70
2017-10-02T11:27:33.464Z,14.90
2017-10-02T11:30:01.307Z,15.00
2017-10-02T11:32:29.021Z,15.20
2017-10-02T11:35:15.663Z,15.20
2017-10-02T11:37:43.356Z,15.30
2017-10-02T11:40:11.217Z,15.20
2017-10-02T11:42:38.847Z,15.30
2017-10-02T11:45:06.408Z,15.40
2017-10-02T11:47:34.038Z,15.30
2017-10-02T11:50:01.715Z,15.40
2017-10-02T11:52:29.352Z,15.40
2017-10-02T11:54:56.913Z,15.40
2017-10-02T11:57:24.751Z,15.40
2017-10-02T11:59:52.312Z,15.30
2017-10-02T12:02:19.844Z,15.30
2017-10-02T12:04:48.547Z,15.40
2017-10-02T12:07:17.179Z,15.40
2017-10-02T12:09:45.041Z,15.40
2017-10-02T12:12:12.675Z,15.40
2017-10-02T12:14:40.351Z,15.40
2017-10-02T12:17:07.934Z,15.40
2017-10-02T12:19:35.546Z,15.30
2017-10-02T12:22:03.144Z,15.30
2017-10-02T12:24:30.691Z,15.20
2017-10-02T12:26:58.278Z,15.10
2017-10-02T12:29:26.581Z,14.90
2017-10-02T12:31:54.116Z,14.90
2017-10-02T12:34:22.432Z,14.70
2017-10-02T12:36:49.971Z,14.70
2017-10-02T12:39:17.784Z,14.70
2017-10-02T12:41:45.460Z,14.60
2017-10-02T12:44:12.990Z,14.60
2017-10-02T12:46:40.564Z,14.60
2017-10-02T12:49:08.121Z,14.60
2017-10-02T12:51:35.689Z,14.70
2017-10-02T12:54:03.278Z,14.80
2017-10-02T12:56:30.842Z,14.80
2017-10-02T12:58:59.282Z,15.00
2017-10-02T13:01:26.843Z,15.00
2017-10-02T13:03:54.450Z,15.10
2017-10-02T13:06:22.899Z,15.30
2017-10-02T13:08:50.763Z,15.30
2017-10-02T13:11:18.320Z,15.40
2017-10-02T13:13:45.959Z,15.40
2017-10-02T13:16:13.604Z,15.50
2017-10-02T13:18:41.142Z,15.50
2017-10-02T13:21:08.725Z,15.50
2017-10-02T13:23:36.410Z,15.50
2017-10-02T13:26:06.160Z,15.50
2017-10-02T13:28:33.778Z,15.50
2017-10-02T13:31:01.355Z,15.60
2017-10-02T13:33:28.915Z,15.60
2017-10-02T13:35:56.518Z,15.70
2017-10-02T13:38:24.075Z,15.80
2017-10-02T13:40:51.644Z,15.80
2017-10-02T13:43:19.545Z,15.90
2017-10-02T13:45:47.128Z,16.00
2017-10-02T13:48:14.683Z,16.00
2017-10-02T13:50:42.241Z,16.00
2017-10-02T13:53:09.796Z,16.00
2017-10-02T13:55:37.376Z,15.90
2017-10-02T13:58:04.924Z,16.00
2017-10-02T14:00:32.465Z,16.00
2017-10-02T14:03:00.020Z,16.00
2017-10-02T14:05:27.577Z,16.10
2017-10-02T14:07:55.137Z,16.10
2017-10-02T14:10:22.746Z,16.10
2017-10-02T14:12:50.335Z,16.20
2017-10-02T14:15:17.880Z,16.20
2017-10-02T14:17:45.472Z,16.30
2017-10-02T14:20:13.011Z,16.40
2017-10-02T14:22:40.558Z,16.30
2017-10-02T14:25:08.135Z,16.40
2017-10-02T14:27:35.705Z,16.30
2017-10-02T14:30:03.253Z,16.40
2017-10-02T14:32:30.820Z,16.40
2017-10-02T14:34:58.794Z,16.40
2017-10-02T14:37:26.341Z,16.40
2017-10-02T14:39:53.892Z,16.40
2017-10-02T14:42:21.705Z,16.40
2017-10-02T14:44:49.265Z,16.40
2017-10-02T14:47:16.944Z,16.40
2017-10-02T14:49:44.502Z,16.40
2017-10-02T14:52:13.118Z,16.30
2017-10-02T14:54:40.663Z,16.30
2017-10-02T14:57:08.978Z,16.20
2017-10-02T14:59:36.539Z,16.20
2017-10-02T15:02:04.091Z,16.20
2017-10-02T15:04:31.725Z,16.10
2017-10-02T15:06:59.435Z,16.10
2017-10-02T15:09:27.091Z,16.00
2017-10-02T15:11:54.678Z,16.00
2017-10-02T15:14:22.511Z,15.90
2017-10-02T15:16:50.139Z,15.90
2017-10-02T15:19:17.744Z,15.90
2017-10-02T15:21:45.297Z,15.90
2017-10-02T15:24:12.858Z,15.90
2017-10-02T15:26:40.390Z,15.90
2017-10-02T15:29:07.967Z,15.90
2017-10-02T15:31:35.735Z,15.90
2017-10-02T15:34:03.283Z,15.90
2017-10-02T15:36:30.859Z,15.90
2017-10-02T15:38:58.420Z,15.90
2017-10-02T15:41:25.983Z,15.80
2017-10-02T15:43:53.538Z,15.80
2017-10-02T15:46:21.085Z,15.80
2017-10-02T15:48:48.643Z,15.80
2017-10-02T15:51:16.178Z,15.80
2017-10-02T15:53:43.748Z,15.80
2017-10-02T15:56:11.320Z,15.80
2017-10-02T15:58:38.950Z,15.80
2017-10-02T16:01:06.500Z,15.80
2017-10-02T16:03:34.102Z,15.80
2017-10-02T16:06:01.727Z,15.80
2017-10-02T16:08:30.356Z,15.80
2017-10-02T16:10:57.922Z,15.70
2017-10-02T16:13:25.487Z,15.70
2017-10-02T16:15:53.043Z,15.70
2017-10-02T16:18:20.614Z,15.70
2017-10-02T16:20:48.165Z,15.70
2017-10-02T16:23:15.765Z,15.70
2017-10-02T16:25:44.118Z,15.60
2017-10-02T16:28:11.649Z,15.50
2017-10-02T16:30:39.188Z,15.50
2017-10-02T16:33:07.622Z,15.40
2017-10-02T16:35:35.158Z,15.40
2017-10-02T16:38:02.715Z,15.40
2017-10-02T16:40:30.282Z,15.30
2017-10-02T16:42:58.235Z,15.20
2017-10-02T16:45:25.757Z,15.10
2017-10-02T16:47:53.280Z,15.10
2017-10-02T16:50:20.849Z,15.10
2017-10-02T16:52:49.156Z,15.10
2017-10-02T16:55:16.730Z,15.10
2017-10-02T16:57:44.284Z,15.10
2017-10-02T17:00:11.841Z,15.10
2017-10-02T17:02:39.373Z,15.10
2017-10-02T17:05:07.686Z,15.10
2017-10-02T17:07:35.217Z,15.00
2017-10-02T17:10:02.756Z,15.00
2017-10-02T17:12:31.090Z,14.90
2017-10-02T17:14:58.636Z,14.90
2017-10-02T17:17:26.215Z,14.90
2017-10-02T17:19:53.804Z,14.80
2017-10-02T17:22:21.354Z,14.80
2017-10-02T17:24:48.912Z,14.80
2017-10-02T17:27:16.476Z,14.90
2017-10-02T17:29:44.024Z,14.80
2017-10-02T17:32:11.575Z,14.80
2017-10-02T17:34:39.113Z,14.80
2017-10-02T17:37:06.663Z,14.90
2017-10-02T17:39:34.230Z,14.80
2017-10-02T17:42:01.785Z,14.80
2017-10-02T17:44:29.365Z,14.70
2017-10-02T17:46:56.960Z,14.70
2017-10-02T17:49:24.527Z,14.70
2017-10-02T17:51:52.886Z,14.70
2017-10-02T17:54:22.285Z,14.60
2017-10-02T17:56:49.870Z,14.60
2017-10-02T17:59:19.412Z,14.60
2017-10-02T18:01:47.178Z,14.60
2017-10-02T18:04:15.020Z,14.60
2017-10-02T18:06:42.943Z,14.60
2017-10-02T18:09:10.733Z,14.60
2017-10-02T18:11:39.798Z,14.60
2017-10-02T18:14:10.093Z,14.60
2017-10-02T18:16:37.773Z,14.60
2017-10-02T18:19:06.317Z,14.60
2017-10-02T18:21:34.990Z,14.60
2017-10-02T18:24:02.551Z,14.50
2017-10-02T18:26:31.372Z,14.60
2017-10-02T18:28:59.010Z,14.60
2017-10-02T18:31:26.564Z,14.60
2017-10-02T18:33:54.889Z,14.50
2017-10-02T18:36:22.488Z,14.60
2017-10-02T18:38:51.088Z,14.50
2017-10-02T18:41:19.407Z,14.60
2017-10-02T18:43:46.997Z,14.50
2017-10-02T18:46:14.654Z,14.50
2017-10-02T18:48:42.621Z,14.60
2017-10-02T18:51:10.214Z,14.60
2017-10-02T18:53:38.686Z,14.60
2017-10-02T18:56:07.055Z,14.50
2017-10-02T18:58:34.655Z,14.50
2017-10-02T19:01:02.974Z,14.50
2017-10-02T19:03:30.588Z,14.50
2017-10-02T19:05:58.158Z,14.50
2017-10-02T19:08:25.707Z,14.50
2017-10-02T19:10:53.539Z,14.50
2017-10-02T19:13:21.301Z,14.50
2017-10-02T19:15:48.845Z,14.50
2017-10-02T19:18:16.509Z,14.50
2017-10-02T19:20:44.059Z,14.50
2017-10-02T19:23:12.023Z,14.50
2017-10-02T19:25:40.313Z,14.50
2017-10-02T19:28:07.912Z,14.50
2017-10-02T19:30:35.717Z,11.40
2017-10-02T19:33:03.306Z,14.50
2017-10-02T19:35:30.852Z,14.50
2017-10-02T19:37:58.439Z,14.50
2017-10-02T19:40:26.086Z,14.60
2017-10-02T19:42:54.293Z,14.50
2017-10-02T19:45:22.180Z,14.50
2017-10-02T19:47:51.226Z,14.50
2017-10-02T19:50:20.562Z,14.50
2017-10-02T19:52:48.180Z,14.50
2017-10-02T19:55:16.659Z,14.50
2017-10-02T19:57:45.496Z,14.50
2017-10-02T20:00:13.790Z,14.40
2017-10-02T20:02:41.459Z,14.60
2017-10-02T20:05:09.138Z,14.60
2017-10-02T20:07:36.782Z,14.50
2017-10-02T20:10:04.684Z,14.50
2017-10-02T20:12:32.360Z,14.50
2017-10-02T20:15:00.382Z,14.60
2017-10-02T20:17:28.016Z,14.60
2017-10-02T20:19:56.054Z,14.60
2017-10-02T20:22:23.739Z,14.50
2017-10-02T20:24:53.344Z,14.50
2017-10-02T20:27:21.097Z,14.60
2017-10-02T20:29:48.757Z,14.50
2017-10-02T20:32:18.445Z,14.50
2017-10-02T20:34:46.166Z,14.50
2017-10-02T20:37:14.248Z,14.50
2017-10-02T20:39:41.927Z,14.50
2017-10-02T20:42:09.638Z,14.50
2017-10-02T20:44:37.454Z,14.50
2017-10-02T20:47:05.175Z,14.50
2017-10-02T20:49:32.829Z,14.40
2017-10-02T20:52:00.392Z,14.50
2017-10-02T20:54:29.633Z,14.40
2017-10-02T20:56:57.330Z,14.40
2017-10-02T20:59:24.933Z,14.40
2017-10-02T21:01:53.987Z,14.40
2017-10-02T21:04:21.545Z,14.30
2017-10-02T21:06:49.922Z,14.20
2017-10-02T21:09:18.493Z,14.20
2017-10-02T21:11:46.121Z,14.20
2017-10-02T21:14:13.912Z,14.20
2017-10-02T21:16:42.103Z,14.20
2017-10-02T21:19:10.444Z,14.20
2017-10-02T21:21:38.658Z,14.10
2017-10-02T21:24:06.785Z,14.20
2017-10-02T21:26:34.966Z,14.10
2017-10-02T21:29:02.543Z,14.10
2017-10-02T21:31:33.666Z,14.10
2017-10-02T21:34:02.985Z,14.00
2017-10-02T21:36:31.132Z,14.00
2017-10-02T21:38:59.137Z,14.00
2017-10-02T21:41:26.809Z,13.90
2017-10-02T21:43:54.876Z,13.90
2017-10-02T21:46:22.831Z,13.90
2017-10-02T21:48:50.979Z,13.90
2017-10-02T21:51:18.754Z,13.80
2017-10-02T21:53:46.682Z,13.80
2017-10-02T21:56:14.400Z,13.80
2017-10-02T21:58:41.948Z,13.90
2017-10-02T22:01:09.528Z,13.70
2017-10-02T22:03:37.066Z,13.70
2017-10-02T22:06:04.635Z,13.80
2017-10-02T22:08:32.190Z,13.70
2017-10-02T22:11:04.294Z,13.70
2017-10-02T22:13:32.647Z,13.60
2017-10-02T22:16:02.392Z,13.60
2017-10-02T22:18:29.991Z,13.60
2017-10-02T22:20:57.554Z,13.60
2017-10-02T22:23:25.115Z,13.60
2017-10-02T22:25:52.724Z,13.50
2017-10-02T22:28:20.293Z,13.60
2017-10-02T22:30:48.632Z,13.40
2017-10-02T22:33:16.576Z,13.30
2017-10-02T22:35:44.095Z,13.20
2017-10-02T22:38:12.658Z,12.90
2017-10-02T22:40:41.028Z,12.70
2017-10-02T22:43:08.569Z,12.70
2017-10-02T22:45:36.136Z,12.50
2017-10-02T22:48:03.703Z,12.40
2017-10-02T22:50:31.272Z,12.30
2017-10-02T22:52:58.843Z,12.20
2017-10-02T22:55:26.423Z,12.10
2017-10-02T22:57:54.744Z,12.00
2017-10-02T23:00:22.286Z,12.00
2017-10-02T23:02:49.844Z,11.90
2017-10-02T23:05:17.385Z,11.80
2017-10-02T23:07:45.749Z,11.50
2017-10-02T23:10:13.504Z,11.50
2017-10-02T23:12:41.087Z,11.40
2017-10-02T23:15:09.519Z,11.10
2017-10-02T23:17:37.073Z,11.10
2017-10-02T23:20:04.684Z,11.00
2017-10-02T23:22:32.971Z,10.90
2017-10-02T23:25:00.519Z,10.90
2017-10-02T23:27:29.119Z,10.90
2017-10-02T23:29:56.657Z,10.90
2017-10-02T23:32:24.961Z,10.70
2017-10-02T23:34:52.517Z,10.80
2017-10-02T23:37:20.098Z,10.70
2017-10-02T23:39:47.610Z,10.70
2017-10-02T23:42:15.910Z,10.60
2017-10-02T23:44:43.461Z,10.60
2017-10-02T23:47:11.025Z,10.60
2017-10-02T23:49:38.559Z,10.60
2017-10-02T23:52:06.516Z,10.60
2017-10-02T23:54:34.052Z,10.60
2017-10-02T23:57:01.599Z,10.60
2017-10-02T23:59:29.192Z,10.60
